Monthalia, Texas
Current Conditions -  °F | °C
As of 5:55 PM on Friday 28 Nov 2014 (Local Time) from KT20 Reporting Station
Thunderstorm Thunderstorm  
Wind Chill: 65°   Ceiling: Unl
Heat Index: 65°   Visibility: 10mi
Dew Point: 49°   Wind: 7mph
Humidity: 56%   Direction: 170°S
Pressure: 30.12"   Gusts: NA
Location:  29.4298°N, 97.5714°W
Report Text: KT20 282355Z AUTO 17006KT 10SM VCTS CLR 19/10 A3012 RMK AO2 T01860096 10238 20186
Loading
Personal Weather Stations






























Interactive Weather Map New forecast layout! Learn more

10-Day Weather Forecast

Advertisements
Track Severe Weather on mobile